sensor_id;sensor_type;location;lat;lon;timestamp;pressure;altitude;pressure_sealevel;temperature;humidity
64521;BME280;50896;46.714;17.322;2023-04-27T00:01:14;100754.25;;;5.45;100.00
64521;BME280;50896;46.714;17.322;2023-04-27T00:03:41;100756.50;;;5.50;100.00
64521;BME280;50896;46.714;17.322;2023-04-27T00:06:08;100748.47;;;5.51;100.00
64521;BME280;50896;46.714;17.322;2023-04-27T00:08:35;100747.88;;;5.59;100.00
64521;BME280;50896;46.714;17.322;2023-04-27T00:11:02;100751.00;;;5.64;100.00
64521;BME280;50896;46.714;17.322;2023-04-27T00:13:29;100736.25;;;5.61;100.00
64521;BME280;50896;46.714;17.322;2023-04-27T00:15:56;100741.63;;;5.71;100.00
64521;BME280;50896;46.714;17.322;2023-04-27T00:18:23;100730.00;;;5.74;100.00
64521;BME280;50896;46.714;17.322;2023-04-27T00:20:50;100738.97;;;5.82;100.00
64521;BME280;50896;46.714;17.322;2023-04-27T00:23:16;100745.91;;;5.84;100.00
64521;BME280;50896;46.714;17.322;2023-04-27T00:25:43;100739.19;;;5.91;100.00
64521;BME280;50896;46.714;17.322;2023-04-27T00:28:10;100736.78;;;5.99;100.00
64521;BME280;50896;46.714;17.322;2023-04-27T00:30:37;100733.53;;;6.07;100.00
64521;BME280;50896;46.714;17.322;2023-04-27T00:33:04;100735.16;;;6.19;100.00
64521;BME280;50896;46.714;17.322;2023-04-27T00:35:32;100732.84;;;6.26;100.00
64521;BME280;50896;46.714;17.322;2023-04-27T00:37:59;100728.78;;;6.22;100.00
64521;BME280;50896;46.714;17.322;2023-04-27T00:40:25;100742.47;;;6.27;100.00
64521;BME280;50896;46.714;17.322;2023-04-27T00:42:52;100734.34;;;6.19;100.00
64521;BME280;50896;46.714;17.322;2023-04-27T00:45:19;100736.13;;;6.18;100.00
64521;BME280;50896;46.714;17.322;2023-04-27T00:47:46;100729.19;;;6.17;100.00
64521;BME280;50896;46.714;17.322;2023-04-27T00:50:14;100735.41;;;6.16;100.00
64521;BME280;50896;46.714;17.322;2023-04-27T00:52:42;100729.53;;;6.12;100.00
64521;BME280;50896;46.714;17.322;2023-04-27T00:55:09;100730.75;;;6.08;100.00
64521;BME280;50896;46.714;17.322;2023-04-27T00:57:38;100732.44;;;6.09;100.00
64521;BME280;50896;46.714;17.322;2023-04-27T01:00:06;100728.63;;;6.02;100.00
64521;BME280;50896;46.714;17.322;2023-04-27T01:02:33;100724.56;;;5.98;100.00
64521;BME280;50896;46.714;17.322;2023-04-27T01:05:02;100721.91;;;5.98;100.00
64521;BME280;50896;46.714;17.322;2023-04-27T01:07:29;100724.56;;;5.98;100.00
64521;BME280;50896;46.714;17.322;2023-04-27T01:09:56;100731.75;;;5.96;100.00
64521;BME280;50896;46.714;17.322;2023-04-27T01:12:23;100732.94;;;5.92;100.00
64521;BME280;50896;46.714;17.322;2023-04-27T01:14:50;100738.34;;;5.90;100.00
64521;BME280;50896;46.714;17.322;2023-04-27T01:17:17;100747.66;;;5.94;100.00
64521;BME280;50896;46.714;17.322;2023-04-27T01:19:44;100754.50;;;5.97;100.00
64521;BME280;50896;46.714;17.322;2023-04-27T01:22:11;100759.22;;;6.05;100.00
64521;BME280;50896;46.714;17.322;2023-04-27T01:24:40;100749.22;;;6.08;100.00
64521;BME280;50896;46.714;17.322;2023-04-27T01:27:07;100758.84;;;6.09;100.00
64521;BME280;50896;46.714;17.322;2023-04-27T01:29:35;100753.41;;;6.11;100.00
64521;BME280;50896;46.714;17.322;2023-04-27T01:32:03;100758.13;;;6.07;100.00
64521;BME280;50896;46.714;17.322;2023-04-27T01:34:30;100760.03;;;6.05;100.00
64521;BME280;50896;46.714;17.322;2023-04-27T01:36:57;100760.28;;;6.02;100.00
64521;BME280;50896;46.714;17.322;2023-04-27T01:39:24;100756.44;;;5.95;100.00
64521;BME280;50896;46.714;17.322;2023-04-27T01:41:51;100760.88;;;5.94;100.00
64521;BME280;50896;46.714;17.322;2023-04-27T01:44:18;100764.75;;;5.90;100.00
64521;BME280;50896;46.714;17.322;2023-04-27T01:46:46;100764.13;;;5.87;100.00
64521;BME280;50896;46.714;17.322;2023-04-27T01:49:13;100769.66;;;5.84;100.00
64521;BME280;50896;46.714;17.322;2023-04-27T01:51:41;100773.13;;;5.84;100.00
64521;BME280;50896;46.714;17.322;2023-04-27T01:54:07;100756.50;;;5.72;100.00
64521;BME280;50896;46.714;17.322;2023-04-27T01:56:36;100768.50;;;5.76;100.00
64521;BME280;50896;46.714;17.322;2023-04-27T01:59:03;100766.19;;;5.72;100.00
64521;BME280;50896;46.714;17.322;2023-04-27T02:01:30;100775.66;;;5.74;100.00
64521;BME280;50896;46.714;17.322;2023-04-27T02:03:59;100774.72;;;5.75;100.00
64521;BME280;50896;46.714;17.322;2023-04-27T02:06:27;100775.53;;;5.76;100.00
64521;BME280;50896;46.714;17.322;2023-04-27T02:08:54;100782.88;;;5.72;100.00
64521;BME280;50896;46.714;17.322;2023-04-27T02:11:21;100771.84;;;5.67;100.00
64521;BME280;50896;46.714;17.322;2023-04-27T02:13:49;100780.25;;;5.72;100.00
64521;BME280;50896;46.714;17.322;2023-04-27T02:16:16;100779.25;;;5.73;100.00
64521;BME280;50896;46.714;17.322;2023-04-27T02:18:43;100782.63;;;5.75;100.00
64521;BME280;50896;46.714;17.322;2023-04-27T02:21:10;100780.69;;;5.77;100.00
64521;BME280;50896;46.714;17.322;2023-04-27T02:23:37;100773.03;;;5.74;100.00
64521;BME280;50896;46.714;17.322;2023-04-27T02:26:04;100768.94;;;5.81;100.00
64521;BME280;50896;46.714;17.322;2023-04-27T02:28:31;100772.19;;;5.85;100.00
64521;BME280;50896;46.714;17.322;2023-04-27T02:30:59;100776.13;;;5.91;100.00
64521;BME280;50896;46.714;17.322;2023-04-27T02:33:25;100769.78;;;5.93;100.00
64521;BME280;50896;46.714;17.322;2023-04-27T02:35:52;100771.94;;;5.99;100.00
64521;BME280;50896;46.714;17.322;2023-04-27T02:38:19;100780.34;;;6.05;100.00
64521;BME280;50896;46.714;17.322;2023-04-27T02:40:52;100769.03;;;6.03;100.00
64521;BME280;50896;46.714;17.322;2023-04-27T02:43:19;100784.16;;;6.12;100.00
64521;BME280;50896;46.714;17.322;2023-04-27T02:45:46;100783.88;;;6.15;100.00
64521;BME280;50896;46.714;17.322;2023-04-27T02:48:13;100778.59;;;6.15;100.00
64521;BME280;50896;46.714;17.322;2023-04-27T02:50:40;100784.50;;;6.19;100.00
64521;BME280;50896;46.714;17.322;2023-04-27T02:53:08;100788.69;;;6.21;100.00
64521;BME280;50896;46.714;17.322;2023-04-27T02:55:36;100788.09;;;6.18;100.00
64521;BME280;50896;46.714;17.322;2023-04-27T02:58:03;100800.69;;;6.25;100.00
64521;BME280;50896;46.714;17.322;2023-04-27T03:00:30;100796.09;;;6.27;100.00
64521;BME280;50896;46.714;17.322;2023-04-27T03:02:57;100803.63;;;6.32;100.00
64521;BME280;50896;46.714;17.322;2023-04-27T03:05:25;100800.78;;;6.35;100.00
64521;BME280;50896;46.714;17.322;2023-04-27T03:07:53;100787.78;;;6.32;100.00
64521;BME280;50896;46.714;17.322;2023-04-27T03:10:20;100802.19;;;6.39;100.00
64521;BME280;50896;46.714;17.322;2023-04-27T03:12:47;100801.22;;;6.40;100.00
64521;BME280;50896;46.714;17.322;2023-04-27T03:15:14;100808.06;;;6.43;100.00
64521;BME280;50896;46.714;17.322;2023-04-27T03:17:41;100803.84;;;6.40;100.00
64521;BME280;50896;46.714;17.322;2023-04-27T03:20:08;100794.50;;;6.36;100.00
64521;BME280;50896;46.714;17.322;2023-04-27T03:22:35;100796.19;;;6.37;100.00
64521;BME280;50896;46.714;17.322;2023-04-27T03:25:02;100803.63;;;6.32;100.00
64521;BME280;50896;46.714;17.322;2023-04-27T03:27:30;100798.75;;;6.27;100.00
64521;BME280;50896;46.714;17.322;2023-04-27T03:29:57;100806.66;;;6.27;100.00
64521;BME280;50896;46.714;17.322;2023-04-27T03:32:24;100804.28;;;6.24;100.00
64521;BME280;50896;46.714;17.322;2023-04-27T03:34:52;100810.50;;;6.23;100.00
64521;BME280;50896;46.714;17.322;2023-04-27T03:37:19;100813.28;;;6.22;100.00
64521;BME280;50896;46.714;17.322;2023-04-27T03:39:46;100812.47;;;6.21;100.00
64521;BME280;50896;46.714;17.322;2023-04-27T03:42:13;100819.53;;;6.21;100.00
64521;BME280;50896;46.714;17.322;2023-04-27T03:44:40;100816.19;;;6.19;100.00
64521;BME280;50896;46.714;17.322;2023-04-27T03:47:07;100821.47;;;6.19;100.00
64521;BME280;50896;46.714;17.322;2023-04-27T03:49:37;100829.13;;;6.22;100.00
64521;BME280;50896;46.714;17.322;2023-04-27T03:52:05;100828.03;;;6.24;100.00
64521;BME280;50896;46.714;17.322;2023-04-27T03:54:33;100829.59;;;6.27;100.00
64521;BME280;50896;46.714;17.322;2023-04-27T03:57:00;100826.97;;;6.27;100.00
64521;BME280;50896;46.714;17.322;2023-04-27T03:59:28;100827.66;;;6.29;100.00
64521;BME280;50896;46.714;17.322;2023-04-27T04:01:55;100813.75;;;6.27;100.00
64521;BME280;50896;46.714;17.322;2023-04-27T04:04:26;100826.94;;;6.38;100.00
64521;BME280;50896;46.714;17.322;2023-04-27T04:06:53;100820.56;;;6.41;100.00
64521;BME280;50896;46.714;17.322;2023-04-27T04:09:21;100820.09;;;6.36;100.00
64521;BME280;50896;46.714;17.322;2023-04-27T04:11:51;100824.75;;;6.43;100.00
64521;BME280;50896;46.714;17.322;2023-04-27T04:14:18;100822.81;;;6.45;100.00
64521;BME280;50896;46.714;17.322;2023-04-27T04:16:45;100833.13;;;6.48;100.00
64521;BME280;50896;46.714;17.322;2023-04-27T04:19:12;100841.78;;;6.50;100.00
64521;BME280;50896;46.714;17.322;2023-04-27T04:21:40;100836.25;;;6.54;100.00
64521;BME280;50896;46.714;17.322;2023-04-27T04:24:07;100830.56;;;6.58;100.00
64521;BME280;50896;46.714;17.322;2023-04-27T04:26:35;100835.38;;;6.64;100.00
64521;BME280;50896;46.714;17.322;2023-04-27T04:29:04;100825.03;;;6.61;100.00
64521;BME280;50896;46.714;17.322;2023-04-27T04:31:31;100839.16;;;6.72;100.00
64521;BME280;50896;46.714;17.322;2023-04-27T04:34:00;100844.06;;;6.76;100.00
64521;BME280;50896;46.714;17.322;2023-04-27T04:36:27;100849.09;;;6.79;100.00
64521;BME280;50896;46.714;17.322;2023-04-27T04:38:54;100849.81;;;6.81;100.00
64521;BME280;50896;46.714;17.322;2023-04-27T04:41:24;100847.75;;;6.85;100.00
64521;BME280;50896;46.714;17.322;2023-04-27T04:43:51;100850.38;;;6.85;100.00
64521;BME280;50896;46.714;17.322;2023-04-27T04:46:17;100856.28;;;6.89;100.00
64521;BME280;50896;46.714;17.322;2023-04-27T04:48:45;100851.94;;;6.88;100.00
64521;BME280;50896;46.714;17.322;2023-04-27T04:51:12;100848.84;;;6.82;100.00
64521;BME280;50896;46.714;17.322;2023-04-27T04:53:39;100849.69;;;6.83;100.00
64521;BME280;50896;46.714;17.322;2023-04-27T04:56:11;100853.16;;;6.83;100.00
64521;BME280;50896;46.714;17.322;2023-04-27T04:58:38;100855.66;;;6.85;100.00
64521;BME280;50896;46.714;17.322;2023-04-27T05:01:05;100858.31;;;6.85;100.00
64521;BME280;50896;46.714;17.322;2023-04-27T05:03:32;100856.53;;;6.86;100.00
64521;BME280;50896;46.714;17.322;2023-04-27T05:05:59;100854.44;;;6.89;100.00
64521;BME280;50896;46.714;17.322;2023-04-27T05:08:26;100859.63;;;6.91;100.00
64521;BME280;50896;46.714;17.322;2023-04-27T05:10:53;100859.25;;;6.95;100.00
64521;BME280;50896;46.714;17.322;2023-04-27T05:13:20;100865.97;;;6.99;100.00
64521;BME280;50896;46.714;17.322;2023-04-27T05:15:47;100861.38;;;7.01;100.00
64521;BME280;50896;46.714;17.322;2023-04-27T05:18:14;100869.63;;;7.08;100.00
64521;BME280;50896;46.714;17.322;2023-04-27T05:20:41;100869.09;;;7.14;100.00
64521;BME280;50896;46.714;17.322;2023-04-27T05:23:08;100866.78;;;7.21;100.00
64521;BME280;50896;46.714;17.322;2023-04-27T05:25:34;100869.06;;;7.26;100.00
64521;BME280;50896;46.714;17.322;2023-04-27T05:28:08;100875.09;;;7.38;100.00
64521;BME280;50896;46.714;17.322;2023-04-27T05:30:35;100881.41;;;7.46;100.00
64521;BME280;50896;46.714;17.322;2023-04-27T05:33:02;100878.19;;;7.64;95.31
64521;BME280;50896;46.714;17.322;2023-04-27T05:35:30;100877.94;;;7.77;93.69
64521;BME280;50896;46.714;17.322;2023-04-27T05:37:58;100879.22;;;7.82;91.98
64521;BME280;50896;46.714;17.322;2023-04-27T05:40:25;100873.66;;;7.85;87.66
64521;BME280;50896;46.714;17.322;2023-04-27T05:42:52;100872.88;;;7.95;89.05
64521;BME280;50896;46.714;17.322;2023-04-27T05:45:20;100874.84;;;7.93;90.29
64521;BME280;50896;46.714;17.322;2023-04-27T05:47:47;100862.41;;;7.93;91.09
64521;BME280;50896;46.714;17.322;2023-04-27T05:50:14;100879.34;;;8.12;91.75
64521;BME280;50896;46.714;17.322;2023-04-27T05:52:41;100886.06;;;8.26;91.03
64521;BME280;50896;46.714;17.322;2023-04-27T05:55:08;100881.34;;;8.29;88.76
64521;BME280;50896;46.714;17.322;2023-04-27T05:57:35;100874.97;;;8.42;88.29
64521;BME280;50896;46.714;17.322;2023-04-27T06:00:02;100881.97;;;8.52;86.31
64521;BME280;50896;46.714;17.322;2023-04-27T06:02:37;100881.97;;;8.52;84.68
64521;BME280;50896;46.714;17.322;2023-04-27T06:05:08;100883.94;;;8.60;85.51
64521;BME280;50896;46.714;17.322;2023-04-27T06:07:41;100887.84;;;8.66;86.92
64521;BME280;50896;46.714;17.322;2023-04-27T06:10:10;100895.22;;;8.72;85.63
64521;BME280;50896;46.714;17.322;2023-04-27T06:12:37;100896.38;;;8.79;84.20
64521;BME280;50896;46.714;17.322;2023-04-27T06:15:05;100900.28;;;8.85;85.00
64521;BME280;50896;46.714;17.322;2023-04-27T06:17:37;100894.69;;;8.88;88.23
64521;BME280;50896;46.714;17.322;2023-04-27T06:20:05;100892.19;;;8.86;87.67
64521;BME280;50896;46.714;17.322;2023-04-27T06:22:32;100907.00;;;8.99;86.39
64521;BME280;50896;46.714;17.322;2023-04-27T06:24:59;100902.50;;;8.99;86.55
64521;BME280;50896;46.714;17.322;2023-04-27T06:27:26;100904.19;;;9.00;84.97
64521;BME280;50896;46.714;17.322;2023-04-27T06:29:53;100905.31;;;9.07;85.39
64521;BME280;50896;46.714;17.322;2023-04-27T06:32:20;100907.00;;;9.09;84.99
64521;BME280;50896;46.714;17.322;2023-04-27T06:34:48;100902.22;;;9.12;83.72
64521;BME280;50896;46.714;17.322;2023-04-27T06:37:15;100907.13;;;9.17;84.10
64521;BME280;50896;46.714;17.322;2023-04-27T06:39:43;100907.13;;;9.27;81.82
64521;BME280;50896;46.714;17.322;2023-04-27T06:42:10;100908.75;;;9.28;79.19
64521;BME280;50896;46.714;17.322;2023-04-27T06:44:37;100909.31;;;9.41;79.41
64521;BME280;50896;46.714;17.322;2023-04-27T06:47:04;100899.25;;;9.45;79.18
64521;BME280;50896;46.714;17.322;2023-04-27T06:49:31;100912.59;;;9.63;79.84
64521;BME280;50896;46.714;17.322;2023-04-27T06:52:01;100909.88;;;9.82;78.63
64521;BME280;50896;46.714;17.322;2023-04-27T06:54:28;100914.78;;;9.87;74.21
64521;BME280;50896;46.714;17.322;2023-04-27T06:56:55;100913.19;;;10.04;70.65
64521;BME280;50896;46.714;17.322;2023-04-27T06:59:21;100911.31;;;10.14;68.68
64521;BME280;50896;46.714;17.322;2023-04-27T07:01:48;100915.75;;;10.23;68.33
64521;BME280;50896;46.714;17.322;2023-04-27T07:04:15;100912.09;;;10.24;69.54
64521;BME280;50896;46.714;17.322;2023-04-27T07:06:42;100913.72;;;10.35;67.85
64521;BME280;50896;46.714;17.322;2023-04-27T07:09:09;100914.88;;;10.33;68.05
64521;BME280;50896;46.714;17.322;2023-04-27T07:11:52;100916.50;;;10.34;67.53
64521;BME280;50896;46.714;17.322;2023-04-27T07:14:19;100917.66;;;10.41;63.15
64521;BME280;50896;46.714;17.322;2023-04-27T07:16:47;100925.63;;;10.41;62.04
64521;BME280;50896;46.714;17.322;2023-04-27T07:19:13;100910.66;;;10.40;61.62
64521;BME280;50896;46.714;17.322;2023-04-27T07:21:41;100908.41;;;10.35;62.92
64521;BME280;50896;46.714;17.322;2023-04-27T07:24:08;100909.22;;;10.46;60.67
64521;BME280;50896;46.714;17.322;2023-04-27T07:26:34;100922.06;;;10.50;61.03
64521;BME280;50896;46.714;17.322;2023-04-27T07:29:02;100918.97;;;10.55;61.07
64521;BME280;50896;46.714;17.322;2023-04-27T07:31:40;100912.63;;;10.56;60.48
64521;BME280;50896;46.714;17.322;2023-04-27T07:34:07;100920.69;;;10.46;60.72
64521;BME280;50896;46.714;17.322;2023-04-27T07:36:34;100922.22;;;10.49;59.78
64521;BME280;50896;46.714;17.322;2023-04-27T07:39:00;100922.16;;;10.58;61.22
64521;BME280;50896;46.714;17.322;2023-04-27T07:41:27;100929.13;;;10.59;59.56
64521;BME280;50896;46.714;17.322;2023-04-27T07:43:54;100922.97;;;10.59;57.33
64521;BME280;50896;46.714;17.322;2023-04-27T07:46:21;100919.78;;;10.55;56.28
64521;BME280;50896;46.714;17.322;2023-04-27T07:48:48;100924.66;;;10.78;53.64
64521;BME280;50896;46.714;17.322;2023-04-27T07:51:16;100916.94;;;10.85;49.47
64521;BME280;50896;46.714;17.322;2023-04-27T07:53:43;100920.81;;;10.90;50.14
64521;BME280;50896;46.714;17.322;2023-04-27T07:56:13;100922.47;;;11.09;48.95
64521;BME280;50896;46.714;17.322;2023-04-27T07:58:39;100921.38;;;11.20;46.74
64521;BME280;50896;46.714;17.322;2023-04-27T08:01:06;100914.22;;;11.39;45.56
64521;BME280;50896;46.714;17.322;2023-04-27T08:03:33;100914.69;;;11.60;44.09
64521;BME280;50896;46.714;17.322;2023-04-27T08:06:00;100912.50;;;11.82;42.80
64521;BME280;50896;46.714;17.322;2023-04-27T08:08:28;100910.50;;;11.84;42.53
64521;BME280;50896;46.714;17.322;2023-04-27T08:10:55;100915.94;;;11.74;40.73
64521;BME280;50896;46.714;17.322;2023-04-27T08:13:21;100905.72;;;11.61;37.88
64521;BME280;50896;46.714;17.322;2023-04-27T08:15:51;100920.38;;;11.66;38.78
64521;BME280;50896;46.714;17.322;2023-04-27T08:18:25;100907.06;;;11.39;40.91
64521;BME280;50896;46.714;17.322;2023-04-27T08:20:53;100915.75;;;11.41;44.12
64521;BME280;50896;46.714;17.322;2023-04-27T08:23:20;100913.53;;;11.37;42.84
64521;BME280;50896;46.714;17.322;2023-04-27T08:25:47;100920.84;;;11.35;38.39
64521;BME280;50896;46.714;17.322;2023-04-27T08:28:14;100902.44;;;11.41;40.48
64521;BME280;50896;46.714;17.322;2023-04-27T08:30:41;100920.28;;;11.49;37.16
64521;BME280;50896;46.714;17.322;2023-04-27T08:33:08;100918.97;;;11.53;38.07
64521;BME280;50896;46.714;17.322;2023-04-27T08:35:35;100912.41;;;11.66;38.75
64521;BME280;50896;46.714;17.322;2023-04-27T08:38:02;100912.78;;;11.79;38.23
64521;BME280;50896;46.714;17.322;2023-04-27T08:40:29;100911.16;;;11.78;37.06
64521;BME280;50896;46.714;17.322;2023-04-27T08:42:57;100901.59;;;11.67;37.30
64521;BME280;50896;46.714;17.322;2023-04-27T08:45:26;100919.13;;;11.78;36.49
64521;BME280;50896;46.714;17.322;2023-04-27T08:47:53;100897.34;;;11.83;35.67
64521;BME280;50896;46.714;17.322;2023-04-27T08:50:19;100909.63;;;12.02;36.19
64521;BME280;50896;46.714;17.322;2023-04-27T08:52:48;100911.84;;;11.88;35.09
64521;BME280;50896;46.714;17.322;2023-04-27T08:55:15;100903.69;;;11.90;36.09
64521;BME280;50896;46.714;17.322;2023-04-27T08:57:53;100883.38;;;11.89;36.46
64521;BME280;50896;46.714;17.322;2023-04-27T09:00:20;100905.13;;;12.02;35.44
64521;BME280;50896;46.714;17.322;2023-04-27T09:02:47;100897.00;;;12.12;37.07
64521;BME280;50896;46.714;17.322;2023-04-27T09:05:20;100884.66;;;12.11;35.39
64521;BME280;50896;46.714;17.322;2023-04-27T09:10:23;100890.19;;;12.18;35.39
64521;BME280;50896;46.714;17.322;2023-04-27T09:12:59;100882.72;;;12.21;35.97
64521;BME280;50896;46.714;17.322;2023-04-27T09:15:27;100884.38;;;12.14;34.92
64521;BME280;50896;46.714;17.322;2023-04-27T09:17:57;100886.66;;;12.09;35.59
64521;BME280;50896;46.714;17.322;2023-04-27T09:20:24;100883.88;;;12.19;35.76
64521;BME280;50896;46.714;17.322;2023-04-27T09:22:53;100888.38;;;12.26;36.99
64521;BME280;50896;46.714;17.322;2023-04-27T09:25:31;100889.28;;;12.43;35.43
64521;BME280;50896;46.714;17.322;2023-04-27T09:27:59;100884.97;;;12.51;37.13
64521;BME280;50896;46.714;17.322;2023-04-27T09:30:27;100870.44;;;12.37;36.23
64521;BME280;50896;46.714;17.322;2023-04-27T09:32:57;100869.59;;;12.36;36.54
64521;BME280;50896;46.714;17.322;2023-04-27T09:35:29;100874.25;;;12.34;36.58
64521;BME280;50896;46.714;17.322;2023-04-27T09:37:57;100865.47;;;12.58;36.78
64521;BME280;50896;46.714;17.322;2023-04-27T09:40:26;100872.28;;;12.53;36.14
64521;BME280;50896;46.714;17.322;2023-04-27T09:42:57;100879.72;;;12.24;36.24
64521;BME280;50896;46.714;17.322;2023-04-27T09:45:24;100861.81;;;12.00;36.45
64521;BME280;50896;46.714;17.322;2023-04-27T09:47:51;100884.59;;;12.37;37.52
64521;BME280;50896;46.714;17.322;2023-04-27T09:50:18;100886.28;;;12.46;36.44
64521;BME280;50896;46.714;17.322;2023-04-27T09:52:47;100876.63;;;12.54;36.71
64521;BME280;50896;46.714;17.322;2023-04-27T09:55:26;100873.16;;;12.61;36.86
64521;BME280;50896;46.714;17.322;2023-04-27T10:00:46;100871.81;;;12.65;35.87
64521;BME280;50896;46.714;17.322;2023-04-27T10:03:32;100867.00;;;12.77;36.84
64521;BME280;50896;46.714;17.322;2023-04-27T10:08:42;100869.50;;;12.95;36.80
64521;BME280;50896;46.714;17.322;2023-04-27T10:11:15;100859.47;;;12.97;36.84
64521;BME280;50896;46.714;17.322;2023-04-27T10:13:52;100848.16;;;13.04;37.65
64521;BME280;50896;46.714;17.322;2023-04-27T10:16:21;100865.00;;;13.04;35.50
64521;BME280;50896;46.714;17.322;2023-04-27T10:18:53;100862.66;;;13.01;35.51
64521;BME280;50896;46.714;17.322;2023-04-27T10:21:21;100850.47;;;12.74;36.02
64521;BME280;50896;46.714;17.322;2023-04-27T10:23:49;100859.50;;;12.81;36.06
64521;BME280;50896;46.714;17.322;2023-04-27T10:26:22;100855.50;;;12.85;37.14
64521;BME280;50896;46.714;17.322;2023-04-27T10:29:08;100854.16;;;12.97;37.33
64521;BME280;50896;46.714;17.322;2023-04-27T10:31:42;100840.31;;;13.02;38.27
64521;BME280;50896;46.714;17.322;2023-04-27T10:34:14;100846.47;;;13.03;37.79
64521;BME280;50896;46.714;17.322;2023-04-27T10:36:41;100842.81;;;13.04;37.48
64521;BME280;50896;46.714;17.322;2023-04-27T10:39:21;100842.47;;;13.07;36.62
64521;BME280;50896;46.714;17.322;2023-04-27T10:42:09;100838.47;;;13.19;38.67
64521;BME280;50896;46.714;17.322;2023-04-27T10:44:37;100827.78;;;13.19;37.50
64521;BME280;50896;46.714;17.322;2023-04-27T10:47:16;100829.75;;;13.33;38.52
64521;BME280;50896;46.714;17.322;2023-04-27T10:49:51;100824.94;;;13.45;38.19
64521;BME280;50896;46.714;17.322;2023-04-27T10:52:19;100819.88;;;13.59;38.28
64521;BME280;50896;46.714;17.322;2023-04-27T10:54:46;100827.69;;;13.68;37.87
64521;BME280;50896;46.714;17.322;2023-04-27T10:57:13;100813.56;;;13.91;37.91
64521;BME280;50896;46.714;17.322;2023-04-27T10:59:49;100819.31;;;14.11;38.69
64521;BME280;50896;46.714;17.322;2023-04-27T11:02:23;100813.03;;;13.96;37.77
64521;BME280;50896;46.714;17.322;2023-04-27T11:04:51;100807.69;;;13.96;38.11
64521;BME280;50896;46.714;17.322;2023-04-27T11:07:25;100802.19;;;13.97;38.00
64521;BME280;50896;46.714;17.322;2023-04-27T11:09:54;100805.91;;;14.19;39.10
64521;BME280;50896;46.714;17.322;2023-04-27T11:12:21;100791.34;;;14.22;38.64
64521;BME280;50896;46.714;17.322;2023-04-27T11:14:48;100793.88;;;14.15;37.09
64521;BME280;50896;46.714;17.322;2023-04-27T11:17:14;100796.22;;;14.42;37.97
64521;BME280;50896;46.714;17.322;2023-04-27T11:19:45;100777.53;;;14.57;39.16
64521;BME280;50896;46.714;17.322;2023-04-27T11:22:13;100794.53;;;14.87;38.65
64521;BME280;50896;46.714;17.322;2023-04-27T11:24:50;100780.44;;;14.93;38.17
64521;BME280;50896;46.714;17.322;2023-04-27T11:27:18;100790.88;;;14.88;38.17
64521;BME280;50896;46.714;17.322;2023-04-27T11:29:47;100792.97;;;14.93;38.05
64521;BME280;50896;46.714;17.322;2023-04-27T11:32:21;100791.34;;;15.07;38.36
64521;BME280;50896;46.714;17.322;2023-04-27T11:34:50;100791.72;;;15.03;36.80
64521;BME280;50896;46.714;17.322;2023-04-27T11:37:24;100785.34;;;15.04;38.38
64521;BME280;50896;46.714;17.322;2023-04-27T11:39:52;100784.25;;;14.99;38.07
64521;BME280;50896;46.714;17.322;2023-04-27T11:42:25;100784.13;;;14.92;36.75
64521;BME280;50896;46.714;17.322;2023-04-27T11:47:21;100783.56;;;14.82;38.68
64521;BME280;50896;46.714;17.322;2023-04-27T11:49:49;100784.63;;;14.73;39.07
64521;BME280;50896;46.714;17.322;2023-04-27T11:52:18;100778.09;;;14.52;38.96
64521;BME280;50896;46.714;17.322;2023-04-27T11:54:52;100786.09;;;14.52;39.61
64521;BME280;50896;46.714;17.322;2023-04-27T11:57:28;100789.22;;;14.41;39.70
64521;BME280;50896;46.714;17.322;2023-04-27T11:59:56;100795.56;;;14.40;40.41
64521;BME280;50896;46.714;17.322;2023-04-27T12:02:27;100781.53;;;14.38;39.49
64521;BME280;50896;46.714;17.322;2023-04-27T12:04:54;100790.09;;;14.10;39.26
64521;BME280;50896;46.714;17.322;2023-04-27T12:07:22;100797.97;;;14.03;40.19
64521;BME280;50896;46.714;17.322;2023-04-27T12:09:48;100789.53;;;14.14;40.74
64521;BME280;50896;46.714;17.322;2023-04-27T12:12:15;100788.81;;;13.97;40.30
64521;BME280;50896;46.714;17.322;2023-04-27T12:14:44;100783.09;;;14.00;41.34
64521;BME280;50896;46.714;17.322;2023-04-27T12:17:11;100786.88;;;14.14;41.92
64521;BME280;50896;46.714;17.322;2023-04-27T12:19:38;100790.63;;;14.28;40.39
64521;BME280;50896;46.714;17.322;2023-04-27T12:22:05;100774.28;;;14.46;40.25
64521;BME280;50896;46.714;17.322;2023-04-27T12:24:32;100778.63;;;14.24;40.52
64521;BME280;50896;46.714;17.322;2023-04-27T12:26:59;100780.53;;;14.39;41.62
64521;BME280;50896;46.714;17.322;2023-04-27T12:29:26;100778.75;;;14.54;38.72
64521;BME280;50896;46.714;17.322;2023-04-27T12:31:54;100766.09;;;14.71;38.19
64521;BME280;50896;46.714;17.322;2023-04-27T12:34:21;100767.22;;;14.77;40.69
64521;BME280;50896;46.714;17.322;2023-04-27T12:36:48;100757.81;;;14.81;40.83
64521;BME280;50896;46.714;17.322;2023-04-27T12:39:20;100773.50;;;14.84;41.04
64521;BME280;50896;46.714;17.322;2023-04-27T12:41:47;100765.34;;;14.77;38.57
64521;BME280;50896;46.714;17.322;2023-04-27T12:44:17;100759.38;;;14.75;39.39
64521;BME280;50896;46.714;17.322;2023-04-27T12:46:44;100767.66;;;14.65;38.41
64521;BME280;50896;46.714;17.322;2023-04-27T12:49:11;100755.31;;;14.56;40.13
64521;BME280;50896;46.714;17.322;2023-04-27T12:51:38;100759.88;;;14.70;40.67
64521;BME280;50896;46.714;17.322;2023-04-27T12:54:07;100753.53;;;14.72;39.74
64521;BME280;50896;46.714;17.322;2023-04-27T12:56:34;100763.88;;;14.75;40.11